Tutti
Gamurruguyurru Airport YGMG Meteo
There is no TAF data available at YGMG or any nearby airports.
There is no METAR data available at YGMG. Showing METAR data for YMGB (9 mi E).
Storico METAR MGT recente (nessun dato per YGMG)
| Date | Time (ACST) | Flight Rules | Wind Dir. | Speed | Type | Height AGL (ft) | Visibility | Temp (°C) | Temp (°F) | Dew Point (°C) | Dew Point (°F) | Rel. Humid. | Pressure | Density Altitude | Remarks |
|---|---|---|---|---|---|---|---|---|---|---|---|---|---|---|---|
| 04-mag | 07:30 | n/a | 150° | 6 kt | Missing | 26° | 78° | 24° | 75° | 89% | 1011 mb | 1.438 ft | |||
| 04-mag | 06:30 | n/a | 120° | 3 kt | Missing | 25° | 77° | 24° | 75° | 94% | 1010 mb | 1.348 ft | |||
| 04-mag | 05:30 | n/a | 90° | 4 kt | Missing | 25° | 77° | 24° | 75° | 94% | 1010 mb | 1.348 ft | |||
| 04-mag | 04:30 | n/a | 150° | 4 kt | Missing | 25° | 77° | 24° | 75° | 94% | 1010 mb | 1.348 ft | |||
| 04-mag | 03:30 | n/a | 140° | 4 kt | Missing | 25° | 77° | 24° | 75° | 94% | 1010 mb | 1.348 ft | |||
| 04-mag | 02:30 | n/a | 120° | 2 kt | Missing | 25° | 77° | 24° | 75° | 94% | 1010 mb | 1.348 ft | |||
| 04-mag | 01:30 | n/a | 150° | 5 kt | Missing | 26° | 78° | 24° | 75° | 89% | 1011 mb | 1.438 ft | |||
| 04-mag | 00:30 | n/a | 110° | 3 kt | Missing | 26° | 78° | 24° | 75° | 89% | 1011 mb | 1.438 ft | |||
| 03-mag | 23:30 | n/a | 140° | 5 kt | Missing | 27° | 80° | 24° | 75° | 84% | 1011 mb | 1.558 ft | |||
| 03-mag | 22:30 | n/a | 150° | 5 kt | Missing | 27° | 80° | 23° | 73° | 79% | 1012 mb | 1.529 ft | |||
| 03-mag | 21:30 | n/a | 150° | 4 kt | Missing | 27° | 80° | 24° | 75° | 84% | 1012 mb | 1.529 ft | |||
| 03-mag | 20:30 | n/a | 100° | 3 kt | Missing | 28° | 82° | 24° | 75° | 79% | 1011 mb | 1.678 ft | |||
| 03-mag | 19:30 | n/a | 90° | 4 kt | Missing | 28° | 82° | 24° | 75° | 79% | 1010 mb | 1.708 ft | |||
| 03-mag | 18:30 | n/a | 80° | 5 kt | Missing | 29° | 84° | 24° | 75° | 74% | 1010 mb | 1.828 ft | |||
| 03-mag | 17:30 | n/a | 60° | 5 kt | Missing | 30° | 86° | 24° | 75° | 70% | 1010 mb | 1.948 ft | |||
| 03-mag | 16:30 | n/a | 50° | 6 kt | Missing | 30° | 86° | 24° | 75° | 70% | 1009 mb | 1.977 ft | |||
| 03-mag | 15:30 | n/a | 60° | 9 kt | Missing | 31° | 87° | 24° | 75° | 66% | 1009 mb | 2.097 ft | |||
| 03-mag | 14:30 | n/a | 90° | 6 kt | Missing | 31° | 87° | 24° | 75° | 66% | 1010 mb | 2.068 ft | |||
| 03-mag | 13:30 | n/a | 80° | 8 kt | Missing | 32° | 89° | 23° | 73° | 59% | 1011 mb | 2.158 ft | |||
| 03-mag | 12:30 | n/a | 80° | 9 kt | Missing | 31° | 87° | 22° | 71° | 59% | 1011 mb | 2.038 ft | |||
| 03-mag | 11:30 | n/a | 100° | 8 kt | Missing | 32° | 89° | 24° | 75° | 63% | 1012 mb | 2.129 ft | |||
| 03-mag | 10:30 | n/a | 110° | 6 kt | Missing | 30° | 86° | 24° | 75° | 70% | 1012 mb | 1.889 ft | |||
| 03-mag | 09:30 | n/a | 120° | 8 kt | Missing | 31° | 87° | 23° | 73° | 63% | 1012 mb | 2.009 ft | |||
| 03-mag | 08:30 | n/a | 150° | 8 kt | Missing | 28° | 82° | 24° | 75° | 79% | 1011 mb | 1.678 ft |
Accedi
| Il tuo browser non è supportato. fai l'upgrade del tuo browser |
